Tilden, Nebraska
Current Conditions -  °F | °C
As of 6:56 PM on Sunday 23 Nov 2014 (Local Time) from KOFK Reporting Station
Few Clouds Few Clouds  
Wind Chill: 29°   Ceiling: Unl
Heat Index: 40°   Visibility: 10mi
Dew Point: 27°   Wind: 24mph
Humidity: 60%   Direction: 320°NW
Pressure: 29.56"   Gusts: 31mph
Location:  42.04°N, 97.83°W
Report Text: KOFK 240056Z AUTO 32021G27KT 10SM FEW050 04/M03 A2956 RMK AO2 PK WND 33027/0056 SLP018 T00441028
Loading
Personal Weather Stations






























Interactive Weather Map New forecast layout! Learn more

10-Day Weather Forecast

Advertisements
Track Severe Weather on mobile